Terminal Aerodrome Forecast
Issued by NWS

Home | Current Version | Previous Version | Text Only | Print | Product List | Glossary On
Versions: 1 2 3 4 5 6 7 8 9 10 11 12 13 14 15 16 17 18 19 20 21
946
FTUS46 KMFR 201742
TAFRBG
TAF
KRBG 201742Z 2018/2118 00000KT 4SM -RA BR FEW022 OVC030
      WS020/20040KT
     FM202300 00000KT 6SM -RA BR SCT025 OVC050
     FM210400 VRB02KT 5SM -RA BR BKN025 OVC040 WS020/20035KT=

USA.gov is the U.S. government's official web portal to all federal, state and local government web resources and services.